KRKP

Details ICAO KRKP (RKP)
Name ARANSAS CO
Region United States
Timezone America/Chicago (UTC-5.0)
Plans Departing 9
Arriving 8
Stats Elevation 23 ft / 7 m (AMSL)
Location 28.086820° -97.044462°
Runways 3
Magnetic Variation 3.431° E
Sunrise 2018-05-22 11:36:20 UTC / 2018-05-22 06:36:20 Local
Sunset 2018-05-23 01:16:15 UTC / 2018-05-22 20:16:15 Local
Advertisement - Login to hide

Runways

ID Width Length Bearing (true) Bearing (mag) Surface Threshold Offset Overrun Length
09 150 ft / 46 m 4,344 ft / 1,324 m 100.51° 97.08° Asphalt 0 ft / 0 m 0 ft / 0 m
14 100 ft / 30 m 5,620 ft / 1,713 m 145.59° 142.16° Asphalt 0 ft / 0 m 0 ft / 0 m
18 100 ft / 30 m 4,514 ft / 1,376 m 190.42° 186.99° Asphalt 0 ft / 0 m 0 ft / 0 m
27 150 ft / 46 m 4,344 ft / 1,324 m 280.52° 277.09° Asphalt 0 ft / 0 m 0 ft / 0 m
32 100 ft / 30 m 5,620 ft / 1,713 m 325.59° 322.16° Asphalt 561 ft / 171 m 0 ft / 0 m
36 100 ft / 30 m 4,514 ft / 1,376 m 10.42° 6.99° Asphalt 0 ft / 0 m 0 ft / 0 m

Map

Weather


0- 5 10 15 20 25 30 35+ Temperature / ° C

Clouds and Precipitation
Forecast for 2018-05-22 18:00 UTC. Updated 4 hours ago

Ground ~20,000 ft ~40,000 ft Winds

METAR

KRKP 221953Z AUTO 13014KT 10SM FEW110 31/23 A2994 RMK AO2 SLP141 T03060228

TAF

Not found

Frequencies

Recorded 119.27 MHz ASOS
Clearance 121.70 MHz CLNC DEL
Unicom 123.05 MHz CTAF/UNICOM
Approach 120.90 MHz CORPUS APP/DEP
Warning: Do not use this data for real-world aviation or navigation. No guarantee of current accuracy is given.